createdAt,value
2018-08-16T00:03:53.657Z,42.9
2018-08-16T00:08:50.939Z,42.9
2018-08-16T00:13:48.893Z,42.9
2018-08-16T00:18:46.572Z,42.9
2018-08-16T00:23:44.254Z,43
2018-08-16T00:28:41.896Z,43
2018-08-16T00:33:39.275Z,43
2018-08-16T00:38:37.116Z,43.1
2018-08-16T00:43:34.788Z,43
2018-08-16T00:48:32.329Z,43.1
2018-08-16T00:53:29.882Z,43.1
2018-08-16T00:58:27.574Z,43.1
2018-08-16T01:03:25.425Z,43.1
2018-08-16T01:08:23.172Z,43.2
2018-08-16T01:13:20.735Z,43.2
2018-08-16T01:18:18.317Z,43.2
2018-08-16T01:23:16.128Z,43.2
2018-08-16T01:28:13.706Z,43.3
2018-08-16T01:33:11.492Z,43.3
2018-08-16T01:38:09.063Z,43.3
2018-08-16T01:43:06.692Z,43.3
2018-08-16T01:48:04.240Z,43.3
2018-08-16T01:53:01.788Z,43.4
2018-08-16T01:57:59.521Z,43.4
2018-08-16T02:02:57.287Z,43.4
2018-08-16T02:07:55.227Z,43.4
2018-08-16T02:12:52.719Z,43.5
2018-08-16T02:17:50.430Z,43.5
2018-08-16T02:22:48.179Z,43.5
2018-08-16T02:27:45.991Z,43.5
2018-08-16T02:32:43.707Z,43.5
2018-08-16T02:37:41.304Z,43.6
2018-08-16T02:42:38.935Z,43.6
2018-08-16T02:47:36.608Z,43.6
2018-08-16T02:52:34.372Z,43.6
2018-08-16T02:57:31.913Z,43.7
2018-08-16T03:02:29.158Z,43.7
2018-08-16T03:07:26.883Z,43.7
2018-08-16T03:12:24.528Z,43.7
2018-08-16T03:17:22.193Z,43.7
2018-08-16T03:22:19.733Z,43.8
2018-08-16T03:27:17.229Z,43.8
2018-08-16T03:32:14.910Z,43.8
2018-08-16T03:37:12.504Z,43.8
2018-08-16T03:42:10.350Z,43.8
2018-08-16T03:47:07.930Z,43.8
2018-08-16T03:52:05.816Z,43.8
2018-08-16T03:57:03.324Z,43.9
2018-08-16T04:02:01.077Z,43.9
2018-08-16T04:06:58.693Z,43.9
2018-08-16T04:11:56.514Z,43.9
2018-08-16T04:16:53.688Z,43.9
2018-08-16T04:21:51.296Z,43.9
2018-08-16T04:26:49.097Z,43.9
2018-08-16T04:31:46.469Z,44
2018-08-16T04:36:44.178Z,44
2018-08-16T04:41:42.146Z,44
2018-08-16T04:46:40.608Z,44
2018-08-16T04:51:38.198Z,44
2018-08-16T04:56:36.036Z,44
2018-08-16T05:01:33.825Z,44
2018-08-16T05:06:31.640Z,44
2018-08-16T05:11:29.193Z,44
2018-08-16T05:16:26.879Z,44.1
2018-08-16T05:21:24.589Z,44.1
2018-08-16T05:26:22.259Z,44.2
2018-08-16T05:31:19.883Z,44.3
2018-08-16T05:36:17.576Z,44.4
2018-08-16T05:41:15.196Z,44.5
2018-08-16T05:46:12.811Z,44.6
2018-08-16T05:51:10.442Z,44.7
2018-08-16T05:56:08.298Z,44.8
2018-08-16T06:01:06.247Z,44.9
2018-08-16T06:06:03.786Z,45
2018-08-16T06:11:01.430Z,45.1
2018-08-16T06:15:59.107Z,45.1
2018-08-16T06:20:56.451Z,45.2
2018-08-16T06:25:54.210Z,45.3
2018-08-16T06:30:52.002Z,45.4
2018-08-16T06:35:50.321Z,45.5
2018-08-16T06:40:48.251Z,45.5
2018-08-16T06:45:46.380Z,45.6
2018-08-16T06:50:44.137Z,45.7
2018-08-16T06:55:43.060Z,45.8
2018-08-16T07:00:40.719Z,45.8
2018-08-16T07:05:38.805Z,45.9
2018-08-16T07:10:36.625Z,46
2018-08-16T07:15:33.809Z,46.1
2018-08-16T07:20:31.517Z,46.1
2018-08-16T07:25:29.259Z,46.2
2018-08-16T07:30:26.643Z,46.3
2018-08-16T07:35:24.295Z,46.4
2018-08-16T07:40:22.062Z,46.4
2018-08-16T07:45:19.736Z,46.5
2018-08-16T07:50:17.686Z,46.5
2018-08-16T07:55:15.253Z,46.6
2018-08-16T08:00:12.982Z,46.7
2018-08-16T08:05:11.012Z,46.7
2018-08-16T08:10:08.796Z,46.8
2018-08-16T08:15:06.028Z,46.9
2018-08-16T08:20:04.054Z,46.9
2018-08-16T08:25:01.770Z,46.9
2018-08-16T08:29:59.712Z,47
2018-08-16T08:34:59.795Z,47
2018-08-16T08:39:57.582Z,47.1
2018-08-16T08:44:59.770Z,47.2
2018-08-16T08:49:57.349Z,47.2
2018-08-16T08:54:57.893Z,47.2
2018-08-16T08:59:58.127Z,47.2
2018-08-16T09:04:55.683Z,47.2
2018-08-16T09:09:56.559Z,47.2
2018-08-16T09:14:57.392Z,47.2
2018-08-16T09:19:55.527Z,47.2
2018-08-16T09:24:52.701Z,47.2
2018-08-16T09:29:50.326Z,47.1
2018-08-16T09:34:47.641Z,47
2018-08-16T09:39:45.600Z,46.9
2018-08-16T09:44:43.297Z,46.8
2018-08-16T09:49:40.874Z,46.7
2018-08-16T09:54:38.733Z,46.6
2018-08-16T09:59:36.679Z,46.5
2018-08-16T10:04:34.491Z,46.4
2018-08-16T10:09:32.598Z,46.2
2018-08-16T10:14:30.369Z,46.1
2018-08-16T10:19:28.550Z,46.1
2018-08-16T10:24:26.446Z,46.1
2018-08-16T10:29:24.018Z,46
2018-08-16T10:34:21.823Z,45.8
2018-08-16T10:39:19.788Z,45.8
2018-08-16T10:44:18.538Z,45.7
2018-08-16T10:49:16.113Z,45.5
2018-08-16T10:54:14.297Z,45.3
2018-08-16T10:59:12.978Z,45.2
2018-08-16T11:04:10.892Z,45
2018-08-16T11:09:08.719Z,44.9
2018-08-16T11:14:06.601Z,44.7
2018-08-16T11:19:03.768Z,44.7
2018-08-16T11:24:01.776Z,44.5
2018-08-16T11:28:59.710Z,44.5
2018-08-16T11:33:57.633Z,44.5
2018-08-16T11:38:55.413Z,44.5
2018-08-16T11:43:53.209Z,44.4
2018-08-16T11:48:51.232Z,44.3
2018-08-16T11:53:49.061Z,44.2
2018-08-16T11:58:46.836Z,44.1
2018-08-16T12:03:44.787Z,44.1
2018-08-16T12:08:42.831Z,44
2018-08-16T12:13:40.813Z,44
2018-08-16T12:18:38.532Z,44
2018-08-16T12:23:36.051Z,44
2018-08-16T12:28:33.810Z,43.9
2018-08-16T12:33:33.242Z,43.6
2018-08-16T12:38:30.721Z,43.3
2018-08-16T12:43:29.908Z,43.1
2018-08-16T12:48:27.563Z,43.2
2018-08-16T12:53:25.000Z,43.2
2018-08-16T12:58:22.599Z,43.1
2018-08-16T13:03:22.291Z,43
2018-08-16T13:08:21.125Z,42.9
2018-08-16T13:13:21.106Z,42.8
2018-08-16T13:18:19.521Z,42.9
2018-08-16T13:23:18.353Z,42.6
2018-08-16T13:28:18.318Z,42.3
2018-08-16T13:33:16.808Z,42.2
2018-08-16T13:38:16.168Z,42.1
2018-08-16T13:43:13.213Z,41.9
2018-08-16T13:48:12.607Z,41.9
2018-08-16T13:53:11.160Z,41.7
2018-08-16T13:58:13.045Z,41.4
2018-08-16T14:03:12.201Z,41.2
2018-08-16T14:08:11.858Z,41.1
2018-08-16T14:13:09.583Z,40.8
2018-08-16T14:18:07.439Z,40.7
2018-08-16T14:23:05.169Z,40.3
2018-08-16T14:28:03.212Z,40.1
2018-08-16T14:33:00.974Z,39.8
2018-08-16T14:37:58.747Z,39.7
2018-08-16T14:42:56.153Z,39.5
2018-08-16T14:47:53.692Z,39.4
2018-08-16T14:52:51.525Z,39.2
2018-08-16T14:57:49.411Z,39.1
2018-08-16T15:02:47.214Z,39
2018-08-16T15:07:45.059Z,38.9
2018-08-16T15:12:42.938Z,38.9
2018-08-16T15:17:40.997Z,38.9
2018-08-16T15:22:38.741Z,38.9
2018-08-16T15:27:36.752Z,38.8
2018-08-16T15:32:33.952Z,38.8
2018-08-16T15:37:31.754Z,38.8
2018-08-16T15:42:29.541Z,38.8
2018-08-16T15:47:27.479Z,38.8
2018-08-16T15:52:25.159Z,38.9
2018-08-16T15:57:23.025Z,39
2018-08-16T16:02:21.118Z,39
2018-08-16T16:07:18.971Z,39.1
2018-08-16T16:12:16.896Z,39.1
2018-08-16T16:17:15.085Z,39.1
2018-08-16T16:22:13.067Z,39.2
2018-08-16T16:27:11.041Z,39.3
2018-08-16T16:32:08.332Z,39.3
2018-08-16T16:37:06.183Z,39.4
2018-08-16T16:42:04.051Z,39.5
2018-08-16T16:47:02.031Z,39.5
2018-08-16T16:51:59.783Z,39.6
2018-08-16T16:56:57.428Z,39.7
2018-08-16T17:01:55.309Z,39.8
2018-08-16T17:06:53.188Z,39.8
2018-08-16T17:11:50.942Z,39.9
2018-08-16T17:16:48.800Z,39.9
2018-08-16T17:21:46.516Z,40
2018-08-16T17:26:44.406Z,40
2018-08-16T17:31:42.531Z,40.1
2018-08-16T17:36:40.522Z,40.1
2018-08-16T17:41:38.546Z,40.2
2018-08-16T17:46:36.350Z,40.2
2018-08-16T17:51:34.162Z,40.2
2018-08-16T17:56:32.410Z,40.3
2018-08-16T18:01:30.074Z,40.3
2018-08-16T18:06:27.915Z,40.3
2018-08-16T18:11:26.438Z,40.3
2018-08-16T18:16:23.954Z,40.4
2018-08-16T18:21:21.667Z,40.4
2018-08-16T18:26:19.757Z,40.4
2018-08-16T18:31:17.381Z,40.5
2018-08-16T18:36:15.331Z,40.5
2018-08-16T18:41:13.307Z,40.5
2018-08-16T18:46:11.467Z,40.5
2018-08-16T18:51:09.175Z,40.5
2018-08-16T18:56:07.736Z,40.6
2018-08-16T19:01:05.419Z,40.6
2018-08-16T19:06:03.114Z,40.6
2018-08-16T19:11:00.960Z,40.6
2018-08-16T19:15:58.907Z,40.6
2018-08-16T19:20:56.681Z,40.6
2018-08-16T19:25:54.368Z,40.7
2018-08-16T19:30:52.181Z,40.7
2018-08-16T19:35:50.998Z,40.7
2018-08-16T19:40:48.563Z,40.7
2018-08-16T19:45:46.272Z,40.7
2018-08-16T19:50:43.821Z,40.8
2018-08-16T19:55:41.597Z,40.8
2018-08-16T20:00:39.200Z,40.8
2018-08-16T20:05:37.053Z,40.8
2018-08-16T20:10:34.866Z,40.8
2018-08-16T20:15:32.219Z,40.8
2018-08-16T20:20:29.527Z,40.9
2018-08-16T20:25:27.336Z,40.9
2018-08-16T20:30:26.434Z,40.9
2018-08-16T20:35:25.838Z,40.9
2018-08-16T20:40:23.416Z,40.9
2018-08-16T20:45:21.338Z,40.9
2018-08-16T20:50:19.353Z,40.9
2018-08-16T20:55:16.956Z,41
2018-08-16T21:00:15.427Z,41
2018-08-16T21:05:13.132Z,41
2018-08-16T21:10:12.882Z,41
2018-08-16T21:20:16.445Z,41
2018-08-16T21:25:14.119Z,41
2018-08-16T21:30:12.064Z,41.1
2018-08-16T21:35:09.758Z,41.1
2018-08-16T21:40:07.562Z,41.1
2018-08-16T21:45:05.401Z,41.1
2018-08-16T21:50:03.132Z,41.2
2018-08-16T21:55:00.797Z,41.2
2018-08-16T21:59:58.423Z,41.2
2018-08-16T22:04:56.315Z,41.2
2018-08-16T22:09:54.060Z,41.3
2018-08-16T22:14:51.914Z,41.3
2018-08-16T22:19:49.661Z,41.3
2018-08-16T22:24:47.369Z,41.3
2018-08-16T22:29:45.161Z,41.4
2018-08-16T22:34:42.672Z,41.4
2018-08-16T22:39:39.984Z,41.4
2018-08-16T22:44:37.953Z,41.4
2018-08-16T22:49:35.758Z,41.4
2018-08-16T22:54:33.275Z,41.5
2018-08-16T22:59:31.046Z,41.5
2018-08-16T23:04:28.910Z,41.5
2018-08-16T23:09:26.760Z,41.5
2018-08-16T23:14:24.479Z,41.5
2018-08-16T23:19:22.292Z,41.6
2018-08-16T23:24:20.088Z,41.6
2018-08-16T23:29:17.840Z,41.6
2018-08-16T23:34:15.618Z,41.6
2018-08-16T23:39:13.330Z,41.7
2018-08-16T23:44:10.479Z,41.7
2018-08-16T23:49:08.316Z,41.7
2018-08-16T23:54:05.825Z,41.7
2018-08-16T23:59:03.464Z,41.7
